WUK235 EGKK-EHRD
Flight info
| Callsign | WUK235 |
|---|---|
| Flight time | 0h 52m |
| Altitude | 23000 |
| Route | FRANE M604 GASBA M197 REDFA |
| Aircraft | A21N/M-SDE2E3FGHIRWXY/LB1 |
Departure
| Time | 2026-05-03 20:15 |
|---|---|
| Airport | London Gatwick Airport (EGKK) |
Arrival
| Time | 2026-05-03 21:07 |
|---|---|
| Airport | Rotterdam The Hague Airport (EHRD) |
| Time | Latitude | Longitude | Altitude | Speed | Heading |
|---|---|---|---|---|---|
| 2026-05-03 20:15 | 51.15033 | -0.17449 | 217 ft | 102 kts | 257° |
| 2026-05-03 20:15 | 51.14821 | -0.18967 | 238 ft | 171 kts | 255° |
| 2026-05-03 20:15 | 51.14548 | -0.20909 | 831 ft | 184 kts | 256° |
| 2026-05-03 20:15 | 51.14277 | -0.22845 | 1904 ft | 174 kts | 257° |
| 2026-05-03 20:16 | 51.14008 | -0.24769 | 2601 ft | 187 kts | 257° |
| 2026-05-03 20:16 | 51.13741 | -0.26932 | 2931 ft | 210 kts | 263° |
| 2026-05-03 20:16 | 51.13893 | -0.29341 | 3386 ft | 229 kts | 291° |
| 2026-05-03 20:16 | 51.14819 | -0.31423 | 3836 ft | 234 kts | 322° |
| 2026-05-03 20:17 | 51.16305 | -0.32387 | 3909 ft | 236 kts | 355° |
| 2026-05-03 20:17 | 51.17905 | -0.31906 | 3905 ft | 237 kts | 28° |
| 2026-05-03 20:17 | 51.19096 | -0.30143 | 3906 ft | 236 kts | 61° |
| 2026-05-03 20:17 | 51.19663 | -0.27654 | 3911 ft | 239 kts | 77° |
| 2026-05-03 20:18 | 51.20001 | -0.25081 | 3916 ft | 240 kts | 79° |
| 2026-05-03 20:18 | 51.20315 | -0.22467 | 3905 ft | 240 kts | 79° |
| 2026-05-03 20:18 | 51.20630 | -0.19835 | 3926 ft | 246 kts | 80° |
| 2026-05-03 20:18 | 51.20971 | -0.17033 | 3912 ft | 265 kts | 79° |
| 2026-05-03 20:19 | 51.21330 | -0.14121 | 3974 ft | 271 kts | 79° |
| 2026-05-03 20:19 | 51.21701 | -0.11151 | 4517 ft | 274 kts | 79° |
| 2026-05-03 20:19 | 51.22072 | -0.08187 | 4859 ft | 272 kts | 79° |
| 2026-05-03 20:19 | 51.22443 | -0.05229 | 5189 ft | 273 kts | 79° |
| 2026-05-03 20:20 | 51.22818 | -0.02235 | 6017 ft | 276 kts | 79° |
| 2026-05-03 20:20 | 51.23193 | 0.00771 | 6897 ft | 278 kts | 79° |
| 2026-05-03 20:20 | 51.23573 | 0.03817 | 7700 ft | 281 kts | 79° |
| 2026-05-03 20:20 | 51.23955 | 0.06893 | 8509 ft | 285 kts | 79° |
| 2026-05-03 20:21 | 51.24343 | 0.10015 | 9325 ft | 289 kts | 79° |
| 2026-05-03 20:21 | 51.24736 | 0.13181 | 10112 ft | 293 kts | 79° |
| 2026-05-03 20:21 | 51.25141 | 0.16462 | 10522 ft | 311 kts | 80° |
| 2026-05-03 20:21 | 51.25420 | 0.19987 | 10812 ft | 330 kts | 92° |
| 2026-05-03 20:22 | 51.25238 | 0.23745 | 11135 ft | 347 kts | 98° |
| 2026-05-03 20:22 | 51.24911 | 0.27623 | 11699 ft | 356 kts | 99° |
| 2026-05-03 20:22 | 51.24563 | 0.31565 | 12392 ft | 361 kts | 100° |
| 2026-05-03 20:22 | 51.24215 | 0.35562 | 13123 ft | 365 kts | 100° |
| 2026-05-03 20:23 | 51.23866 | 0.39600 | 13857 ft | 369 kts | 100° |
| 2026-05-03 20:23 | 51.23517 | 0.43677 | 14499 ft | 373 kts | 100° |
| 2026-05-03 20:23 | 51.23163 | 0.47809 | 15115 ft | 378 kts | 100° |
| 2026-05-03 20:23 | 51.22834 | 0.51997 | 15731 ft | 384 kts | 95° |
| 2026-05-03 20:24 | 51.23131 | 0.56263 | 16334 ft | 393 kts | 73° |
| 2026-05-03 20:24 | 51.24393 | 0.60149 | 16964 ft | 399 kts | 52° |
| 2026-05-03 20:24 | 51.26454 | 0.63114 | 17566 ft | 403 kts | 30° |
| 2026-05-03 20:24 | 51.29047 | 0.64760 | 18173 ft | 404 kts | 9° |
| 2026-05-03 20:25 | 51.31843 | 0.64879 | 18686 ft | 403 kts | 348° |
| 2026-05-03 20:25 | 51.34484 | 0.63460 | 19092 ft | 401 kts | 328° |
| 2026-05-03 20:25 | 51.36640 | 0.60689 | 19563 ft | 398 kts | 307° |
| 2026-05-03 20:25 | 51.38042 | 0.56932 | 20070 ft | 393 kts | 287° |
| 2026-05-03 20:26 | 51.38528 | 0.52676 | 20595 ft | 388 kts | 266° |
| 2026-05-03 20:26 | 51.38050 | 0.48468 | 21139 ft | 385 kts | 246° |
| 2026-05-03 20:26 | 51.36677 | 0.44836 | 21739 ft | 382 kts | 226° |
| 2026-05-03 20:26 | 51.34595 | 0.42233 | 22329 ft | 383 kts | 207° |
| 2026-05-03 20:27 | 51.32060 | 0.40942 | 22868 ft | 387 kts | 189° |
| 2026-05-03 20:27 | 51.29360 | 0.41041 | 23006 ft | 391 kts | 172° |
| 2026-05-03 20:27 | 51.26775 | 0.42468 | 23021 ft | 399 kts | 154° |
| 2026-05-03 20:27 | 51.24463 | 0.44964 | 23019 ft | 404 kts | 147° |
| 2026-05-03 20:28 | 51.22319 | 0.47959 | 23005 ft | 410 kts | 136° |
| 2026-05-03 20:28 | 51.20620 | 0.51604 | 23018 ft | 417 kts | 122° |
| 2026-05-03 20:28 | 51.19562 | 0.55895 | 23022 ft | 424 kts | 106° |
| 2026-05-03 20:28 | 51.19312 | 0.60632 | 23011 ft | 431 kts | 88° |
| 2026-05-03 20:29 | 51.19946 | 0.65312 | 22996 ft | 436 kts | 71° |
| 2026-05-03 20:29 | 51.21423 | 0.69554 | 22984 ft | 440 kts | 53° |
| 2026-05-03 20:29 | 51.23612 | 0.72965 | 22973 ft | 442 kts | 36° |
| 2026-05-03 20:29 | 51.26321 | 0.75259 | 22967 ft | 442 kts | 18° |
| 2026-05-03 20:30 | 51.29312 | 0.76262 | 22958 ft | 439 kts | 1° |
| 2026-05-03 20:30 | 51.32356 | 0.76132 | 22953 ft | 438 kts | 353° |
| 2026-05-03 20:30 | 51.35383 | 0.75598 | 22909 ft | 438 kts | 349° |
| 2026-05-03 20:30 | 51.38396 | 0.74866 | 22910 ft | 437 kts | 348° |
| 2026-05-03 20:31 | 51.41394 | 0.74065 | 22911 ft | 437 kts | 347° |
| 2026-05-03 20:31 | 51.44395 | 0.73259 | 22910 ft | 437 kts | 348° |
| 2026-05-03 20:31 | 51.47403 | 0.72477 | 22913 ft | 437 kts | 348° |
| 2026-05-03 20:31 | 51.50411 | 0.71724 | 22911 ft | 438 kts | 348° |
| 2026-05-03 20:32 | 51.53420 | 0.70995 | 22911 ft | 438 kts | 348° |
| 2026-05-03 20:32 | 51.56453 | 0.70529 | 22914 ft | 440 kts | 358° |
| 2026-05-03 20:32 | 51.59509 | 0.70952 | 22915 ft | 442 kts | 6° |
| 2026-05-03 20:32 | 51.62549 | 0.71796 | 22915 ft | 443 kts | 9° |
| 2026-05-03 20:33 | 51.65567 | 0.72845 | 22915 ft | 444 kts | 11° |
| 2026-05-03 20:33 | 51.68570 | 0.74002 | 22911 ft | 444 kts | 12° |
| 2026-05-03 20:33 | 51.71565 | 0.75199 | 22902 ft | 444 kts | 12° |
| 2026-05-03 20:33 | 51.74563 | 0.76403 | 22904 ft | 444 kts | 12° |
| 2026-05-03 20:34 | 51.77563 | 0.77595 | 22910 ft | 444 kts | 12° |
| 2026-05-03 20:34 | 51.80544 | 0.78908 | 22895 ft | 445 kts | 20° |
| 2026-05-03 20:34 | 51.83217 | 0.81402 | 22904 ft | 446 kts | 39° |
| 2026-05-03 20:34 | 51.85309 | 0.85056 | 22902 ft | 444 kts | 57° |
| 2026-05-03 20:35 | 51.86636 | 0.89531 | 22901 ft | 440 kts | 76° |
| 2026-05-03 20:35 | 51.87111 | 0.94381 | 22908 ft | 435 kts | 91° |
| 2026-05-03 20:35 | 51.87310 | 0.99278 | 22888 ft | 439 kts | 83° |
| 2026-05-03 20:35 | 51.87911 | 1.04128 | 22901 ft | 441 kts | 79° |
| 2026-05-03 20:36 | 51.88630 | 1.08964 | 22900 ft | 442 kts | 77° |
| 2026-05-03 20:36 | 51.89431 | 1.13772 | 22900 ft | 443 kts | 76° |
| 2026-05-03 20:36 | 51.90280 | 1.18570 | 22900 ft | 443 kts | 75° |
| 2026-05-03 20:36 | 51.91150 | 1.23351 | 22900 ft | 443 kts | 75° |
| 2026-05-03 20:37 | 51.92025 | 1.28130 | 22901 ft | 443 kts | 75° |
| 2026-05-03 20:37 | 51.92897 | 1.32920 | 22900 ft | 443 kts | 75° |
| 2026-05-03 20:37 | 51.93762 | 1.37711 | 22900 ft | 443 kts | 76° |
| 2026-05-03 20:37 | 51.94619 | 1.42496 | 22900 ft | 443 kts | 76° |
| 2026-05-03 20:38 | 51.95473 | 1.47299 | 22884 ft | 443 kts | 76° |
| 2026-05-03 20:38 | 51.96320 | 1.52089 | 22897 ft | 442 kts | 76° |
| 2026-05-03 20:38 | 51.97165 | 1.56883 | 22900 ft | 442 kts | 76° |
| 2026-05-03 20:38 | 51.98005 | 1.61665 | 22900 ft | 441 kts | 76° |
| 2026-05-03 20:39 | 51.98846 | 1.66463 | 22899 ft | 441 kts | 76° |
| 2026-05-03 20:39 | 51.99637 | 1.71266 | 22900 ft | 441 kts | 77° |
| 2026-05-03 20:39 | 52.00391 | 1.76085 | 22901 ft | 441 kts | 77° |
| 2026-05-03 20:39 | 52.01140 | 1.80923 | 22901 ft | 441 kts | 77° |
| 2026-05-03 20:40 | 52.01886 | 1.85750 | 22900 ft | 441 kts | 77° |
| 2026-05-03 20:40 | 52.02631 | 1.90579 | 22900 ft | 441 kts | 77° |
| 2026-05-03 20:40 | 52.03375 | 1.95409 | 22903 ft | 441 kts | 78° |
| 2026-05-03 20:40 | 52.04118 | 2.00242 | 22901 ft | 441 kts | 77° |
| 2026-05-03 20:41 | 52.04857 | 2.05060 | 22903 ft | 441 kts | 77° |
| 2026-05-03 20:41 | 52.05597 | 2.09903 | 22903 ft | 440 kts | 78° |
| 2026-05-03 20:41 | 52.06334 | 2.14735 | 22909 ft | 440 kts | 78° |
| 2026-05-03 20:41 | 52.07057 | 2.19481 | 22697 ft | 427 kts | 78° |
| 2026-05-03 20:42 | 52.07761 | 2.24118 | 22436 ft | 419 kts | 78° |
| 2026-05-03 20:42 | 52.08453 | 2.28701 | 22167 ft | 417 kts | 78° |
| 2026-05-03 20:42 | 52.09142 | 2.33278 | 21899 ft | 416 kts | 78° |
| 2026-05-03 20:42 | 52.09824 | 2.37816 | 21536 ft | 409 kts | 78° |
| 2026-05-03 20:43 | 52.10495 | 2.42295 | 21041 ft | 406 kts | 78° |
| 2026-05-03 20:43 | 52.10953 | 2.46809 | 20393 ft | 403 kts | 90° |
| 2026-05-03 20:43 | 52.10642 | 2.51253 | 19828 ft | 393 kts | 109° |
| 2026-05-03 20:43 | 52.09688 | 2.55379 | 19261 ft | 387 kts | 116° |
| 2026-05-03 20:44 | 52.08586 | 2.59342 | 18716 ft | 383 kts | 117° |
| 2026-05-03 20:44 | 52.07471 | 2.63255 | 18151 ft | 380 kts | 117° |
| 2026-05-03 20:44 | 52.06366 | 2.67144 | 17552 ft | 377 kts | 117° |
| 2026-05-03 20:44 | 52.05279 | 2.70988 | 17010 ft | 373 kts | 117° |
| 2026-05-03 20:45 | 52.04203 | 2.74800 | 16477 ft | 369 kts | 117° |
| 2026-05-03 20:45 | 52.03137 | 2.78579 | 15942 ft | 367 kts | 117° |
| 2026-05-03 20:45 | 52.02080 | 2.82327 | 15414 ft | 364 kts | 117° |
| 2026-05-03 20:45 | 52.01027 | 2.86056 | 14876 ft | 362 kts | 117° |
| 2026-05-03 20:46 | 51.99984 | 2.89750 | 14340 ft | 359 kts | 117° |
| 2026-05-03 20:46 | 51.98947 | 2.93415 | 13809 ft | 357 kts | 117° |
| 2026-05-03 20:46 | 51.97914 | 2.97060 | 13245 ft | 354 kts | 117° |
| 2026-05-03 20:46 | 51.97234 | 2.99456 | 12881 ft | 352 kts | 117° |
| 2026-05-03 20:47 | 51.96217 | 3.03040 | 12388 ft | 348 kts | 117° |
| 2026-05-03 20:47 | 51.95209 | 3.06583 | 11873 ft | 345 kts | 117° |
| 2026-05-03 20:47 | 51.94208 | 3.10097 | 11366 ft | 341 kts | 117° |
| 2026-05-03 20:47 | 51.92895 | 3.14697 | 10700 ft | 338 kts | 117° |
| 2026-05-03 20:48 | 51.92232 | 3.17018 | 10361 ft | 335 kts | 117° |
| 2026-05-03 20:48 | 51.91264 | 3.20403 | 10128 ft | 323 kts | 117° |
| 2026-05-03 20:48 | 51.90347 | 3.23611 | 10045 ft | 306 kts | 117° |
| 2026-05-03 20:48 | 51.89475 | 3.26658 | 9940 ft | 291 kts | 117° |
| 2026-05-03 20:49 | 51.88627 | 3.29607 | 9677 ft | 290 kts | 117° |
| 2026-05-03 20:49 | 51.87764 | 3.32596 | 9027 ft | 296 kts | 117° |
| 2026-05-03 20:49 | 51.86882 | 3.35650 | 8244 ft | 304 kts | 117° |
| 2026-05-03 20:49 | 51.85978 | 3.38778 | 7490 ft | 309 kts | 117° |
| 2026-05-03 20:50 | 51.85076 | 3.41905 | 6771 ft | 302 kts | 117° |
| 2026-05-03 20:50 | 51.84204 | 3.44927 | 6224 ft | 291 kts | 117° |
| 2026-05-03 20:50 | 51.83370 | 3.47813 | 5932 ft | 277 kts | 117° |
| 2026-05-03 20:50 | 51.82553 | 3.50634 | 5904 ft | 278 kts | 117° |
| 2026-05-03 20:51 | 51.81729 | 3.53470 | 5713 ft | 278 kts | 117° |
| 2026-05-03 20:51 | 51.80912 | 3.56289 | 5448 ft | 277 kts | 116° |
| 2026-05-03 20:51 | 51.80346 | 3.59248 | 5202 ft | 278 kts | 97° |
| 2026-05-03 20:51 | 51.80535 | 3.62335 | 4956 ft | 278 kts | 75° |
| 2026-05-03 20:52 | 51.81144 | 3.65299 | 4759 ft | 278 kts | 70° |
| 2026-05-03 20:52 | 51.81825 | 3.68224 | 4629 ft | 278 kts | 70° |
| 2026-05-03 20:52 | 51.82646 | 3.71057 | 4487 ft | 278 kts | 60° |
| 2026-05-03 20:52 | 51.83657 | 3.73713 | 4298 ft | 277 kts | 57° |
| 2026-05-03 20:53 | 51.84702 | 3.76335 | 4129 ft | 277 kts | 57° |
| 2026-05-03 20:53 | 51.85749 | 3.78944 | 3951 ft | 276 kts | 57° |
| 2026-05-03 20:53 | 51.86794 | 3.81543 | 3774 ft | 276 kts | 57° |
| 2026-05-03 20:53 | 51.87841 | 3.84153 | 3593 ft | 275 kts | 57° |
| 2026-05-03 20:54 | 51.88872 | 3.86730 | 3421 ft | 269 kts | 57° |
| 2026-05-03 20:54 | 51.90846 | 3.91653 | 3077 ft | 257 kts | 57° |
| 2026-05-03 20:54 | 51.91822 | 3.94081 | 2976 ft | 258 kts | 57° |
| 2026-05-03 20:55 | 51.92802 | 3.96519 | 2955 ft | 258 kts | 57° |
| 2026-05-03 20:55 | 51.93783 | 3.98955 | 2936 ft | 258 kts | 57° |
| 2026-05-03 20:55 | 51.94764 | 4.01393 | 2911 ft | 258 kts | 57° |
| 2026-05-03 20:55 | 51.95745 | 4.03830 | 2883 ft | 258 kts | 57° |
| 2026-05-03 20:56 | 51.96729 | 4.06272 | 2865 ft | 258 kts | 57° |
| 2026-05-03 20:56 | 51.97711 | 4.08709 | 2834 ft | 258 kts | 57° |
| 2026-05-03 20:56 | 51.98685 | 4.11152 | 2817 ft | 258 kts | 57° |
| 2026-05-03 20:56 | 51.99654 | 4.13592 | 2792 ft | 257 kts | 57° |
| 2026-05-03 20:57 | 52.00625 | 4.16026 | 2779 ft | 257 kts | 57° |
| 2026-05-03 20:57 | 52.01614 | 4.18447 | 2746 ft | 257 kts | 56° |
| 2026-05-03 20:57 | 52.02601 | 4.20858 | 2725 ft | 257 kts | 56° |
| 2026-05-03 20:57 | 52.03591 | 4.23275 | 2678 ft | 257 kts | 56° |
| 2026-05-03 20:58 | 52.04582 | 4.25687 | 2653 ft | 256 kts | 56° |
| 2026-05-03 20:58 | 52.05571 | 4.28094 | 2621 ft | 256 kts | 56° |
| 2026-05-03 20:58 | 52.06570 | 4.30526 | 2601 ft | 256 kts | 56° |
| 2026-05-03 20:58 | 52.07545 | 4.32900 | 2576 ft | 256 kts | 56° |
| 2026-05-03 20:59 | 52.08547 | 4.35340 | 2541 ft | 256 kts | 56° |
| 2026-05-03 20:59 | 52.09537 | 4.37747 | 2527 ft | 256 kts | 56° |
| 2026-05-03 20:59 | 52.10528 | 4.40153 | 2501 ft | 256 kts | 56° |
| 2026-05-03 20:59 | 52.11515 | 4.42555 | 2484 ft | 256 kts | 56° |
| 2026-05-03 21:00 | 52.12501 | 4.44963 | 2480 ft | 256 kts | 56° |
| 2026-05-03 21:00 | 52.13152 | 4.46557 | 2476 ft | 256 kts | 56° |
| 2026-05-03 21:00 | 52.14472 | 4.49779 | 2476 ft | 256 kts | 56° |
| 2026-05-03 21:00 | 52.15457 | 4.52189 | 2482 ft | 256 kts | 56° |
| 2026-05-03 21:01 | 52.16444 | 4.54609 | 2460 ft | 256 kts | 57° |
| 2026-05-03 21:01 | 52.17174 | 4.57166 | 2485 ft | 240 kts | 76° |
| 2026-05-03 21:01 | 52.17339 | 4.59745 | 2397 ft | 225 kts | 98° |
| 2026-05-03 21:01 | 52.16843 | 4.62108 | 2273 ft | 220 kts | 126° |
| 2026-05-03 21:02 | 52.15755 | 4.63769 | 2147 ft | 214 kts | 155° |
| 2026-05-03 21:02 | 52.14352 | 4.64388 | 2022 ft | 209 kts | 180° |
| 2026-05-03 21:02 | 52.12915 | 4.64169 | 1975 ft | 208 kts | 192° |
| 2026-05-03 21:02 | 52.11496 | 4.63710 | 1963 ft | 208 kts | 194° |
| 2026-05-03 21:03 | 52.10085 | 4.63225 | 1904 ft | 208 kts | 194° |
| 2026-05-03 21:03 | 52.08667 | 4.62745 | 1863 ft | 208 kts | 193° |
| 2026-05-03 21:03 | 52.07273 | 4.62285 | 1803 ft | 197 kts | 193° |
| 2026-05-03 21:03 | 52.05992 | 4.61870 | 1771 ft | 180 kts | 193° |
| 2026-05-03 21:04 | 52.04782 | 4.61479 | 1749 ft | 177 kts | 193° |
| 2026-05-03 21:04 | 52.03586 | 4.61030 | 1670 ft | 176 kts | 200° |
| 2026-05-03 21:04 | 52.02522 | 4.60158 | 1585 ft | 167 kts | 219° |
| 2026-05-03 21:04 | 52.01684 | 4.58883 | 1478 ft | 164 kts | 232° |
| 2026-05-03 21:05 | 52.01036 | 4.57379 | 1503 ft | 161 kts | 237° |
| 2026-05-03 21:05 | 52.00415 | 4.55865 | 1495 ft | 159 kts | 236° |
| 2026-05-03 21:05 | 51.99833 | 4.54404 | 1414 ft | 149 kts | 236° |
| 2026-05-03 21:05 | 51.99284 | 4.53030 | 1177 ft | 141 kts | 236° |
| 2026-05-03 21:06 | 51.98770 | 4.51746 | 975 ft | 133 kts | 236° |
| 2026-05-03 21:06 | 51.98269 | 4.50491 | 790 ft | 133 kts | 236° |
| 2026-05-03 21:06 | 51.97765 | 4.49227 | 610 ft | 134 kts | 236° |
| 2026-05-03 21:06 | 51.97256 | 4.47953 | 415 ft | 135 kts | 236° |
| 2026-05-03 21:07 | 51.96747 | 4.46671 | 252 ft | 135 kts | 235° |
| 2026-05-03 21:07 | 51.96248 | 4.45379 | 58 ft | 135 kts | 236° |
| 2026-05-03 21:07 | 51.95757 | 4.44202 | 4 ft | 107 kts | 237° |
| 2026-05-03 21:07 | 51.95475 | 4.43498 | 3 ft | 42 kts | 237° |
| 2026-05-03 21:08 | 51.95356 | 4.43200 | 4 ft | 28 kts | 236° |
| 2026-05-03 21:08 | 51.95213 | 4.43098 | 4 ft | 5 kts | 184° |
| 2026-05-03 21:09 | 51.95185 | 4.43102 | 4 ft | 8 kts | 160° |
| 2026-05-03 21:09 | 51.95149 | 4.43163 | 4 ft | 5 kts | 88° |
| 2026-05-03 21:09 | 51.95176 | 4.43234 | 4 ft | 11 kts | 55° |
| 2026-05-03 21:10 | 51.95225 | 4.43351 | 4 ft | 4 kts | 56° |
| 2026-05-03 21:10 | 51.95234 | 4.43436 | 6 ft | 10 kts | 114° |
| 2026-05-03 21:10 | 51.95174 | 4.43489 | 4 ft | 7 kts | 187° |
| 2026-05-03 21:10 | 51.95150 | 4.43449 | 4 ft | 5 kts | 237° |
| 2026-05-03 21:11 | 51.95131 | 4.43413 | 4 ft | 4 kts | 217° |